Time;durP1;ratioP1;P1;durP2;ratioP2;P2;SDS_P1;SDS_P2;PMS_P1;PMS_P2;Temp;Humidity;BMP_temperature;BMP_pressure;BME280_temperature;BME280_humidity;BME280_pressure;Samples;Min_cycle;Max_cycle;Signal;HPM_P1;HPM_P2
2021/12/28 00:01:13;;;;;;;1.77;1.67;;;-7.50;99.90;;;;;;5069719;28;20287;-75
2021/12/28 00:03:42;;;;;;;0.90;0.90;;;-7.50;99.90;;;;;;5050872;28;20209;-76
2021/12/28 00:06:08;;;;;;;0.80;0.80;;;-7.50;99.90;;;;;;5071460;28;20204;-75
2021/12/28 00:08:35;;;;;;;0.90;0.90;;;-7.60;99.90;;;;;;5051857;28;20212;-76
2021/12/28 00:11:01;;;;;;;0.93;0.93;;;-7.60;99.90;;;;;;5071260;28;20722;-75
2021/12/28 00:13:28;;;;;;;0.80;0.80;;;-7.60;99.90;;;;;;5070030;28;20270;-75
2021/12/28 00:18:24;;;;;;;0.80;0.80;;;-7.70;99.90;;;;;;5070065;28;20193;-75
2021/12/28 00:20:56;;;;;;;0.90;0.90;;;-7.70;99.90;;;;;;5056327;28;20694;-75
2021/12/28 00:23:25;;;;;;;0.90;0.90;;;-7.70;99.90;;;;;;5052962;28;20600;-75
2021/12/28 00:25:53;;;;;;;0.90;0.90;;;-7.70;99.90;;;;;;5070039;28;20679;-74
2021/12/28 00:28:19;;;;;;;0.90;0.90;;;-7.70;99.90;;;;;;5072594;28;20251;-74
2021/12/28 00:30:47;;;;;;;4.73;2.90;;;-7.70;99.90;;;;;;5075082;28;20269;-75
2021/12/28 00:33:13;;;;;;;0.90;0.90;;;-7.70;99.90;;;;;;5073163;28;20698;-75
2021/12/28 00:35:41;;;;;;;0.93;0.93;;;-7.70;99.90;;;;;;5065709;28;20274;-74
2021/12/28 00:38:09;;;;;;;0.90;0.90;;;-7.70;99.90;;;;;;5073678;28;20666;-76
2021/12/28 00:40:37;;;;;;;1.00;1.00;;;-7.70;99.90;;;;;;5073674;28;20217;-77
2021/12/28 00:43:04;;;;;;;0.90;0.90;;;-7.60;99.90;;;;;;5073810;28;20229;-75
2021/12/28 00:45:30;;;;;;;0.90;0.90;;;-7.60;99.90;;;;;;5074744;28;20222;-75
2021/12/28 00:47:56;;;;;;;0.90;0.90;;;-7.50;99.90;;;;;;5072704;28;20207;-75
2021/12/28 00:50:23;;;;;;;0.90;0.90;;;-7.50;99.90;;;;;;5054603;28;20216;-75
2021/12/28 00:52:49;;;;;;;0.80;0.80;;;-7.40;99.90;;;;;;5074801;28;20201;-75
2021/12/28 00:55:17;;;;;;;2.47;2.27;;;-7.30;99.90;;;;;;5058120;28;20580;-77
2021/12/28 00:57:43;;;;;;;0.90;0.90;;;-7.30;99.90;;;;;;5057539;28;20287;-74
2021/12/28 01:00:31;;;;;;;0.97;0.97;;;-7.20;99.90;;;;;;5073765;28;20284;-75
2021/12/28 01:02:58;;;;;;;0.90;0.90;;;-7.10;99.90;;;;;;5056606;28;20334;-76
2021/12/28 01:05:25;;;;;;;0.80;0.80;;;-7.10;99.90;;;;;;5073625;28;20235;-75
2021/12/28 01:07:51;;;;;;;0.90;0.90;;;-7.00;99.90;;;;;;5054585;28;20216;-77
2021/12/28 01:10:20;;;;;;;0.90;0.90;;;-7.00;99.90;;;;;;5073739;28;20234;-75
2021/12/28 01:12:49;;;;;;;0.90;0.90;;;-6.80;99.90;;;;;;5057405;28;20729;-76
2021/12/28 01:15:16;;;;;;;0.80;0.80;;;-6.80;99.90;;;;;;5074121;28;20596;-75
2021/12/28 01:17:42;;;;;;;0.90;0.90;;;-6.80;99.90;;;;;;5073889;28;20212;-76
2021/12/28 01:20:10;;;;;;;0.90;0.90;;;-6.70;99.90;;;;;;5074133;28;20574;-74
2021/12/28 01:22:36;;;;;;;0.90;0.90;;;-6.70;99.90;;;;;;5053492;28;20300;-75
2021/12/28 01:25:04;;;;;;;0.90;0.90;;;-6.60;99.90;;;;;;5056109;28;20197;-75
2021/12/28 01:27:30;;;;;;;0.83;0.83;;;-6.60;99.90;;;;;;5062089;28;20213;-75
2021/12/28 01:29:55;;;;;;;1.00;1.00;;;-6.50;99.90;;;;;;5071859;28;20224;-76
2021/12/28 01:32:21;;;;;;;0.80;0.80;;;-6.50;99.90;;;;;;5064760;28;20205;-75
2021/12/28 01:34:47;;;;;;;1.00;1.00;;;-6.50;99.90;;;;;;5064294;28;20201;-75
2021/12/28 01:37:13;;;;;;;0.90;0.90;;;-6.40;99.90;;;;;;5047869;28;20252;-75
2021/12/28 01:39:39;;;;;;;0.90;0.90;;;-6.40;99.90;;;;;;5063017;28;20209;-75
2021/12/28 01:42:07;;;;;;;0.90;0.90;;;-6.40;99.90;;;;;;5073804;28;20211;-75
2021/12/28 01:44:34;;;;;;;0.90;0.90;;;-6.30;99.90;;;;;;5055572;28;20205;-75
2021/12/28 01:47:00;;;;;;;0.80;0.80;;;-6.30;99.90;;;;;;5057506;28;20752;-76
2021/12/28 01:49:26;;;;;;;0.83;0.83;;;-6.20;99.90;;;;;;5072311;28;20679;-75
2021/12/28 01:51:52;;;;;;;1.23;1.13;;;-6.20;99.90;;;;;;5050825;28;20201;-76
2021/12/28 01:54:19;;;;;;;0.90;0.90;;;-6.10;99.90;;;;;;5043220;28;20196;-75
2021/12/28 01:56:47;;;;;;;0.90;0.90;;;-6.10;99.90;;;;;;5069655;28;20220;-75
2021/12/28 01:59:16;;;;;;;0.90;0.90;;;-6.10;99.90;;;;;;5043298;28;20582;-75
2021/12/28 02:01:42;;;;;;;1.00;1.00;;;-6.10;99.90;;;;;;5051622;28;20209;-76
2021/12/28 02:04:16;;;;;;;0.90;0.90;;;-6.00;99.90;;;;;;5059630;28;20205;-75
2021/12/28 02:06:43;;;;;;;0.90;0.90;;;-6.00;99.90;;;;;;5073290;28;20207;-76
2021/12/28 02:09:09;;;;;;;1.00;1.00;;;-6.00;99.90;;;;;;5072113;28;20216;-75
2021/12/28 02:11:35;;;;;;;0.80;0.80;;;-6.00;99.90;;;;;;5070442;28;20208;-76
2021/12/28 02:14:02;;;;;;;0.80;0.80;;;-5.90;99.90;;;;;;5057355;28;20217;-75
2021/12/28 02:16:28;;;;;;;0.90;0.90;;;-5.90;99.90;;;;;;5073123;28;20222;-76
2021/12/28 02:18:53;;;;;;;0.80;0.80;;;-5.90;99.90;;;;;;5055107;28;20204;-75
2021/12/28 02:21:19;;;;;;;0.80;0.80;;;-5.90;99.90;;;;;;5054920;28;20228;-76
2021/12/28 02:23:45;;;;;;;0.90;0.90;;;-5.80;99.90;;;;;;5055005;28;20201;-76
2021/12/28 02:26:10;;;;;;;0.90;0.90;;;-5.80;99.90;;;;;;5062086;28;20209;-75
2021/12/28 02:28:36;;;;;;;0.83;0.83;;;-5.80;99.90;;;;;;5073025;28;20219;-76
2021/12/28 02:31:03;;;;;;;1.53;1.43;;;-5.70;99.90;;;;;;5071651;28;20204;-76
2021/12/28 02:33:29;;;;;;;1.13;1.13;;;-5.70;99.90;;;;;;5072502;28;20205;-75
2021/12/28 02:35:58;;;;;;;0.87;0.87;;;-5.70;99.90;;;;;;5070123;28;20205;-76
2021/12/28 02:38:23;;;;;;;0.90;0.90;;;-5.70;99.90;;;;;;5072273;28;20239;-75
2021/12/28 02:40:49;;;;;;;0.80;0.80;;;-5.70;99.90;;;;;;5071460;28;20278;-75
2021/12/28 02:43:17;;;;;;;0.90;0.90;;;-5.70;99.90;;;;;;5071516;28;20577;-76
2021/12/28 02:45:50;;;;;;;0.90;0.90;;;-5.70;99.90;;;;;;5054149;28;20204;-76
2021/12/28 02:48:17;;;;;;;0.90;0.90;;;-5.60;99.90;;;;;;5054562;28;20200;-76
2021/12/28 02:50:48;;;;;;;0.90;0.90;;;-5.60;99.90;;;;;;5071200;28;20262;-76
2021/12/28 02:53:15;;;;;;;1.00;1.00;;;-5.50;99.90;;;;;;5072476;28;20619;-76
2021/12/28 02:55:41;;;;;;;0.90;0.90;;;-5.60;99.90;;;;;;5055194;28;20266;-75
2021/12/28 02:58:10;;;;;;;1.10;1.02;;;-5.50;99.90;;;;;;5070218;28;20211;-76
2021/12/28 03:00:36;;;;;;;0.90;0.90;;;-5.50;99.90;;;;;;5049801;28;20197;-76
2021/12/28 03:03:14;;;;;;;0.90;0.90;;;-5.40;99.90;;;;;;5042810;28;20211;-75
2021/12/28 03:05:42;;;;;;;0.90;0.90;;;-5.40;99.90;;;;;;5053242;28;20203;-75
2021/12/28 03:08:09;;;;;;;0.90;0.90;;;-5.40;99.90;;;;;;5071067;28;20566;-76
2021/12/28 03:10:36;;;;;;;0.90;0.90;;;-5.40;99.90;;;;;;5071697;28;20254;-76
2021/12/28 03:13:03;;;;;;;0.90;0.90;;;-5.40;99.90;;;;;;5053375;28;20227;-76
2021/12/28 03:15:29;;;;;;;0.90;0.90;;;-5.30;99.90;;;;;;5052730;28;20579;-76
2021/12/28 03:17:55;;;;;;;1.00;1.00;;;-5.30;99.90;;;;;;5070895;28;20297;-75
2021/12/28 03:20:21;;;;;;;1.00;1.00;;;-5.30;99.90;;;;;;5071761;28;20205;-75
2021/12/28 03:22:46;;;;;;;0.90;0.90;;;-5.30;99.90;;;;;;5070101;28;20194;-75
2021/12/28 03:25:12;;;;;;;0.80;0.80;;;-5.30;99.90;;;;;;5070881;28;20196;-75
2021/12/28 03:27:39;;;;;;;0.80;0.80;;;-5.20;99.90;;;;;;5055074;28;20208;-75
2021/12/28 03:30:08;;;;;;;0.90;0.90;;;-5.20;99.90;;;;;;5070658;28;20220;-75
2021/12/28 03:32:34;;;;;;;0.80;0.80;;;-5.30;99.90;;;;;;5070477;28;20291;-76
2021/12/28 03:35:03;;;;;;;0.88;0.88;;;-5.20;99.90;;;;;;5060464;28;20323;-76
2021/12/28 03:37:32;;;;;;;0.80;0.80;;;-5.20;99.90;;;;;;5068763;28;20706;-76
2021/12/28 03:39:58;;;;;;;0.90;0.90;;;-5.10;99.90;;;;;;5071641;28;20204;-75
2021/12/28 03:42:24;;;;;;;0.90;0.90;;;-5.10;99.90;;;;;;5055505;28;20668;-75
2021/12/28 03:44:50;;;;;;;0.83;0.83;;;-5.10;99.90;;;;;;5070528;28;20201;-75
2021/12/28 03:47:16;;;;;;;0.90;0.90;;;-5.10;99.90;;;;;;5070531;28;20205;-76
2021/12/28 03:49:42;;;;;;;0.80;0.80;;;-5.00;99.90;;;;;;5071282;28;20250;-76
2021/12/28 03:52:08;;;;;;;1.55;1.45;;;-5.00;99.90;;;;;;5054675;28;20264;-76
2021/12/28 03:54:34;;;;;;;0.90;0.90;;;-5.10;99.90;;;;;;5071383;28;20193;-76
2021/12/28 03:57:01;;;;;;;0.87;0.87;;;-5.10;99.90;;;;;;5071307;28;20583;-76
2021/12/28 03:59:27;;;;;;;1.17;1.15;;;-5.00;99.90;;;;;;5053334;28;20242;-76
2021/12/28 04:01:53;;;;;;;0.82;0.82;;;-5.00;99.90;;;;;;5062834;28;20271;-76
2021/12/28 04:04:19;;;;;;;1.33;1.23;;;-5.00;99.90;;;;;;5053036;28;20738;-75
2021/12/28 04:06:44;;;;;;;0.80;0.80;;;-5.00;99.90;;;;;;5053561;28;20201;-76
2021/12/28 04:09:12;;;;;;;0.80;0.80;;;-5.00;99.90;;;;;;5053194;28;20254;-75
2021/12/28 04:11:39;;;;;;;0.80;0.80;;;-4.90;99.90;;;;;;5052082;28;20193;-75
2021/12/28 04:14:07;;;;;;;0.80;0.80;;;-4.90;99.90;;;;;;5071397;28;20242;-76
2021/12/28 04:16:34;;;;;;;2.27;2.07;;;-4.90;99.90;;;;;;5070778;28;20674;-76
2021/12/28 04:19:01;;;;;;;0.90;0.90;;;-4.80;99.90;;;;;;5071272;28;20668;-76
2021/12/28 04:21:27;;;;;;;0.90;0.90;;;-4.80;99.90;;;;;;5070362;28;20604;-76
2021/12/28 04:23:53;;;;;;;0.90;0.90;;;-4.80;99.90;;;;;;5070300;28;20219;-75
2021/12/28 04:26:20;;;;;;;0.90;0.90;;;-4.80;99.90;;;;;;5069961;28;20680;-75
2021/12/28 04:28:46;;;;;;;0.90;0.90;;;-4.80;99.90;;;;;;5072360;28;20212;-76
2021/12/28 04:31:13;;;;;;;1.00;1.00;;;-4.80;99.90;;;;;;5052070;28;20585;-76
2021/12/28 04:33:39;;;;;;;0.90;0.90;;;-4.70;99.90;;;;;;5053031;28;20745;-76
2021/12/28 04:36:11;;;;;;;0.80;0.80;;;-4.80;99.90;;;;;;5068166;28;20227;-76
2021/12/28 04:38:37;;;;;;;0.80;0.80;;;-4.70;99.90;;;;;;5069767;28;20267;-76
2021/12/28 04:41:03;;;;;;;0.80;0.80;;;-4.70;99.90;;;;;;5069869;28;20284;-76
2021/12/28 04:43:29;;;;;;;0.93;0.93;;;-4.60;99.90;;;;;;5070797;28;20731;-75
2021/12/28 04:45:55;;;;;;;1.98;1.88;;;-4.60;99.90;;;;;;5070001;28;20280;-76
2021/12/28 04:48:21;;;;;;;0.70;0.70;;;-4.50;99.90;;;;;;5069617;28;20235;-73
2021/12/28 04:50:47;;;;;;;1.07;1.07;;;-4.60;99.90;;;;;;5052839;28;20229;-76
2021/12/28 04:53:13;;;;;;;0.80;0.80;;;-4.50;99.90;;;;;;5070726;28;20219;-75
2021/12/28 04:55:42;;;;;;;0.80;0.80;;;-4.50;99.90;;;;;;5069718;28;20671;-76
2021/12/28 04:58:08;;;;;;;2.73;2.53;;;-4.50;99.90;;;;;;5070868;28;20205;-76
2021/12/28 05:00:34;;;;;;;0.80;0.80;;;-4.40;99.90;;;;;;5051487;28;20718;-75
2021/12/28 05:03:00;;;;;;;0.80;0.80;;;-4.40;99.90;;;;;;5069782;28;20205;-75
2021/12/28 05:05:26;;;;;;;1.10;1.10;;;-4.40;99.90;;;;;;5052344;28;20283;-76
2021/12/28 05:07:53;;;;;;;1.00;1.00;;;-4.40;99.90;;;;;;5070433;28;20196;-75
2021/12/28 05:10:19;;;;;;;0.80;0.80;;;-4.40;99.90;;;;;;5070746;28;20205;-75
2021/12/28 05:12:44;;;;;;;0.90;0.90;;;-4.40;99.90;;;;;;5071157;28;20568;-75
2021/12/28 05:15:10;;;;;;;0.80;0.80;;;-4.40;99.90;;;;;;5070442;28;20396;-75
2021/12/28 05:17:36;;;;;;;0.98;0.98;;;-4.40;99.90;;;;;;5071760;28;20944;-76
2021/12/28 05:20:04;;;;;;;1.60;1.40;;;-4.40;99.90;;;;;;5055340;28;20414;-74
2021/12/28 05:22:29;;;;;;;0.90;0.90;;;-4.40;99.90;;;;;;5055099;28;20414;-75
2021/12/28 05:24:55;;;;;;;0.80;0.80;;;-4.30;99.90;;;;;;5073012;28;20430;-75
2021/12/28 05:27:21;;;;;;;1.17;0.98;;;-4.30;99.90;;;;;;5056117;28;20820;-76
2021/12/28 05:29:47;;;;;;;0.82;0.82;;;-4.30;99.90;;;;;;5057011;28;20307;-75
2021/12/28 05:32:13;;;;;;;0.80;0.80;;;-4.30;99.90;;;;;;5072423;28;20204;-73
2021/12/28 05:34:38;;;;;;;0.88;0.88;;;-4.20;99.90;;;;;;5061317;28;20201;-74
2021/12/28 05:37:04;;;;;;;0.90;0.90;;;-4.20;99.90;;;;;;5062515;28;20627;-73
2021/12/28 05:39:30;;;;;;;1.00;1.00;;;-4.20;99.90;;;;;;5072498;28;20583;-75
2021/12/28 05:41:59;;;;;;;0.93;0.93;;;-4.20;99.90;;;;;;5055731;28;20200;-76
2021/12/28 05:44:25;;;;;;;0.90;0.90;;;-4.20;99.90;;;;;;5055513;28;20212;-75
2021/12/28 05:46:51;;;;;;;0.90;0.90;;;-4.20;99.90;;;;;;5073820;28;20201;-76
2021/12/28 05:49:17;;;;;;;0.80;0.80;;;-4.20;99.90;;;;;;5054421;28;20236;-76
2021/12/28 05:51:43;;;;;;;1.00;1.00;;;-4.20;99.90;;;;;;5072443;28;20197;-76
2021/12/28 05:54:09;;;;;;;1.23;1.17;;;-4.20;99.90;;;;;;5038298;28;20193;-75
2021/12/28 05:56:35;;;;;;;0.90;0.90;;;-4.20;99.90;;;;;;5074098;28;20212;-75
2021/12/28 05:59:00;;;;;;;1.25;1.15;;;-4.20;99.90;;;;;;5072256;28;20392;-76
2021/12/28 06:01:26;;;;;;;0.90;0.90;;;-4.20;99.90;;;;;;5072498;28;20261;-76
2021/12/28 06:03:52;;;;;;;0.90;0.90;;;-4.20;99.90;;;;;;5073460;28;20211;-76
2021/12/28 06:06:18;;;;;;;1.00;1.00;;;-4.20;99.90;;;;;;5056428;28;20259;-76
2021/12/28 06:08:44;;;;;;;2.67;1.30;;;-4.20;99.90;;;;;;5072068;28;20611;-75
2021/12/28 06:11:12;;;;;;;0.90;0.90;;;-4.20;99.90;;;;;;5056617;28;20201;-75
2021/12/28 06:13:42;;;;;;;1.73;1.30;;;-4.20;99.90;;;;;;5070238;28;20791;-76
2021/12/28 06:16:09;;;;;;;0.80;0.80;;;-4.10;99.90;;;;;;5055192;28;20211;-76
2021/12/28 06:18:35;;;;;;;1.00;1.00;;;-4.10;99.90;;;;;;5056011;28;20284;-75
2021/12/28 06:21:01;;;;;;;0.90;0.90;;;-4.00;99.90;;;;;;5071839;28;20200;-76
2021/12/28 06:23:27;;;;;;;0.90;0.90;;;-4.00;99.90;;;;;;5071841;28;20572;-76
2021/12/28 06:25:52;;;;;;;0.90;0.90;;;-4.00;99.90;;;;;;5072508;28;20659;-76
2021/12/28 06:28:18;;;;;;;0.90;0.90;;;-4.00;99.90;;;;;;5071699;28;20231;-76
2021/12/28 06:30:44;;;;;;;0.90;0.90;;;-4.00;99.90;;;;;;5054726;28;20201;-76
2021/12/28 06:33:10;;;;;;;0.90;0.90;;;-4.00;99.90;;;;;;5072848;28;20216;-75
2021/12/28 06:35:36;;;;;;;1.33;1.25;;;-3.90;99.90;;;;;;5063191;28;20197;-75
2021/12/28 06:38:01;;;;;;;0.80;0.80;;;-3.90;99.90;;;;;;5072556;28;20679;-75
2021/12/28 06:40:27;;;;;;;0.80;0.80;;;-3.80;99.90;;;;;;5054518;28;20208;-76
2021/12/28 06:42:53;;;;;;;1.30;1.25;;;-3.90;99.90;;;;;;5072855;28;20234;-76
2021/12/28 06:45:19;;;;;;;0.80;0.80;;;-3.90;99.90;;;;;;5053524;28;20287;-75
2021/12/28 06:47:45;;;;;;;0.85;0.85;;;-3.90;99.90;;;;;;5054436;28;20205;-76
2021/12/28 06:50:12;;;;;;;1.73;1.63;;;-3.90;99.90;;;;;;5072820;28;20215;-76
2021/12/28 06:52:38;;;;;;;1.70;1.60;;;-3.90;99.90;;;;;;5054310;28;20216;-76
2021/12/28 06:55:07;;;;;;;1.35;1.25;;;-3.90;99.90;;;;;;5071220;28;20205;-75
2021/12/28 06:57:32;;;;;;;1.00;1.00;;;-3.80;99.90;;;;;;5054272;28;20200;-76
2021/12/28 06:59:58;;;;;;;0.93;0.93;;;-3.80;99.90;;;;;;5071235;28;20614;-75
2021/12/28 07:02:24;;;;;;;0.90;0.90;;;-3.80;99.90;;;;;;5055007;28;20240;-76
2021/12/28 07:04:50;;;;;;;0.90;0.90;;;-3.80;99.90;;;;;;5054343;28;20266;-76
2021/12/28 07:07:16;;;;;;;0.80;0.80;;;-3.80;99.90;;;;;;5055305;28;20236;-75
2021/12/28 07:09:42;;;;;;;0.90;0.90;;;-3.80;99.90;;;;;;5068942;28;20251;-75
2021/12/28 07:12:08;;;;;;;1.25;1.17;;;-3.80;99.90;;;;;;5054086;28;20208;-76
2021/12/28 07:14:34;;;;;;;0.90;0.90;;;-3.80;99.90;;;;;;5053947;28;20609;-76
2021/12/28 07:17:00;;;;;;;0.90;0.90;;;-3.70;99.90;;;;;;5070859;28;20239;-76
2021/12/28 07:19:26;;;;;;;0.80;0.80;;;-3.80;99.90;;;;;;5070772;28;20217;-75
2021/12/28 07:21:52;;;;;;;0.90;0.90;;;-3.80;99.90;;;;;;5071759;28;20233;-76
2021/12/28 07:24:18;;;;;;;0.82;0.82;;;-3.70;99.90;;;;;;5052710;28;20675;-75
2021/12/28 07:26:44;;;;;;;2.05;1.77;;;-3.60;99.90;;;;;;5052671;28;20234;-75
2021/12/28 07:29:11;;;;;;;0.90;0.90;;;-3.70;99.90;;;;;;5053837;28;20220;-76
2021/12/28 07:31:37;;;;;;;0.90;0.90;;;-3.70;99.90;;;;;;5071211;28;20193;-76
2021/12/28 07:34:03;;;;;;;0.90;0.90;;;-3.70;99.90;;;;;;5070009;28;20213;-76
2021/12/28 07:36:29;;;;;;;1.00;1.00;;;-3.60;99.90;;;;;;5052491;28;20675;-74
2021/12/28 07:38:55;;;;;;;0.80;0.80;;;-3.60;99.90;;;;;;5069983;28;20279;-75
2021/12/28 07:41:21;;;;;;;0.90;0.90;;;-3.60;99.90;;;;;;5053424;28;20208;-75
2021/12/28 07:43:47;;;;;;;0.80;0.80;;;-3.60;99.90;;;;;;5070361;28;20227;-76
2021/12/28 07:46:14;;;;;;;0.80;0.80;;;-3.60;99.90;;;;;;5070515;28;20209;-76
2021/12/28 07:48:40;;;;;;;0.90;0.90;;;-3.60;99.90;;;;;;5054359;28;20208;-76
2021/12/28 07:51:07;;;;;;;0.98;0.98;;;-3.60;99.90;;;;;;5071618;28;20215;-75
2021/12/28 07:53:33;;;;;;;0.95;0.95;;;-3.60;99.90;;;;;;5070220;28;20205;-76
2021/12/28 07:55:59;;;;;;;0.80;0.80;;;-3.60;99.90;;;;;;5054543;28;20200;-76
2021/12/28 07:58:25;;;;;;;1.00;1.00;;;-3.60;99.90;;;;;;5054459;28;20713;-76
2021/12/28 08:00:51;;;;;;;0.90;0.90;;;-3.60;99.90;;;;;;5070211;28;20205;-75
2021/12/28 08:03:18;;;;;;;0.70;0.70;;;-3.60;99.90;;;;;;5054445;28;20303;-75
2021/12/28 08:05:45;;;;;;;0.90;0.90;;;-3.60;99.90;;;;;;5052454;28;20250;-76
2021/12/28 08:08:11;;;;;;;3.13;2.83;;;-3.60;99.90;;;;;;5070327;28;20220;-75
2021/12/28 08:10:37;;;;;;;1.02;1.02;;;-3.60;99.90;;;;;;5070049;28;20284;-76
2021/12/28 08:13:03;;;;;;;1.42;1.38;;;-3.60;99.90;;;;;;5071351;28;20200;-75
2021/12/28 08:15:29;;;;;;;1.77;1.58;;;-3.60;99.90;;;;;;5051969;28;20193;-75
2021/12/28 08:17:55;;;;;;;0.90;0.90;;;-3.60;99.90;;;;;;5053385;28;20758;-75
2021/12/28 08:20:20;;;;;;;0.80;0.80;;;-3.60;99.90;;;;;;5062536;28;20203;-76
2021/12/28 08:22:48;;;;;;;1.27;1.25;;;-3.60;99.90;;;;;;5070662;28;20669;-75
2021/12/28 08:25:16;;;;;;;2.88;2.17;;;-3.60;99.90;;;;;;5071637;28;20204;-75
2021/12/28 08:27:43;;;;;;;0.80;0.80;;;-3.50;99.90;;;;;;5068880;28;20690;-75
2021/12/28 08:30:10;;;;;;;0.70;0.70;;;-3.50;99.90;;;;;;5071099;28;20556;-76
2021/12/28 08:32:36;;;;;;;0.90;0.90;;;-3.50;99.90;;;;;;5070943;28;20652;-76
2021/12/28 08:35:03;;;;;;;0.90;0.90;;;-3.50;99.90;;;;;;5059438;28;20683;-75
2021/12/28 08:37:29;;;;;;;0.90;0.90;;;-3.50;99.90;;;;;;5066611;28;20303;-76
2021/12/28 08:39:55;;;;;;;3.60;2.55;;;-3.60;99.90;;;;;;5052659;28;20356;-75
2021/12/28 08:42:21;;;;;;;0.90;0.90;;;-3.50;99.90;;;;;;5052756;28;20232;-76
2021/12/28 08:44:51;;;;;;;0.90;0.90;;;-3.50;99.90;;;;;;5070945;28;20651;-76
2021/12/28 08:47:18;;;;;;;4.95;1.95;;;-3.60;99.90;;;;;;5051862;28;20208;-76
2021/12/28 08:49:44;;;;;;;0.82;0.82;;;-3.60;99.90;;;;;;5055973;28;20663;-75
2021/12/28 08:52:09;;;;;;;0.80;0.80;;;-3.60;99.90;;;;;;5059985;28;20258;-75
2021/12/28 08:54:36;;;;;;;0.80;0.80;;;-3.60;99.90;;;;;;5074517;28;20284;-75
2021/12/28 08:57:02;;;;;;;4.90;2.00;;;-3.60;99.90;;;;;;5056766;28;20224;-76
2021/12/28 08:59:28;;;;;;;0.70;0.70;;;-3.60;99.90;;;;;;5073386;28;20728;-76
2021/12/28 09:01:57;;;;;;;0.80;0.80;;;-3.60;99.90;;;;;;5068160;28;20209;-75
2021/12/28 09:04:23;;;;;;;0.80;0.80;;;-3.60;99.90;;;;;;5045965;28;20204;-76
2021/12/28 09:06:49;;;;;;;0.80;0.80;;;-3.50;99.90;;;;;;5073610;28;20200;-74
2021/12/28 09:09:15;;;;;;;1.00;1.00;;;-3.50;99.90;;;;;;5074402;28;20209;-75
2021/12/28 09:11:42;;;;;;;1.35;1.25;;;-3.60;99.90;;;;;;5073058;28;20545;-76
2021/12/28 09:14:08;;;;;;;1.00;0.98;;;-3.50;99.90;;;;;;5056321;28;20254;-75
2021/12/28 09:16:34;;;;;;;0.82;0.82;;;-3.50;99.90;;;;;;5054924;28;20578;-76
2021/12/28 09:19:00;;;;;;;0.93;0.93;;;-3.50;99.90;;;;;;5072028;28;20218;-75
2021/12/28 09:21:26;;;;;;;0.90;0.90;;;-3.50;99.90;;;;;;5056523;28;20563;-74
2021/12/28 09:23:51;;;;;;;0.98;0.98;;;-3.50;99.90;;;;;;5073818;28;20215;-75
2021/12/28 09:26:17;;;;;;;0.80;0.80;;;-3.50;99.90;;;;;;5069303;28;20208;-75
2021/12/28 09:28:43;;;;;;;0.70;0.70;;;-3.40;99.90;;;;;;5073951;28;20277;-76
2021/12/28 09:31:09;;;;;;;3.70;2.65;;;-3.40;99.90;;;;;;5073243;28;20233;-74
2021/12/28 09:33:34;;;;;;;1.85;1.35;;;-3.40;99.90;;;;;;5072877;28;20193;-74
2021/12/28 09:36:01;;;;;;;0.70;0.70;;;-3.40;99.90;;;;;;5054801;28;20617;-75
2021/12/28 09:38:27;;;;;;;0.90;0.90;;;-3.30;99.90;;;;;;5072700;28;20224;-75
2021/12/28 09:40:53;;;;;;;0.90;0.90;;;-3.30;99.90;;;;;;5059526;28;20205;-74
2021/12/28 09:43:20;;;;;;;0.80;0.80;;;-3.20;99.90;;;;;;5072783;28;20204;-76
2021/12/28 09:45:46;;;;;;;0.90;0.90;;;-3.30;99.90;;;;;;5055998;28;20249;-76
2021/12/28 09:48:11;;;;;;;0.90;0.90;;;-3.20;99.90;;;;;;5087338;28;20212;-76
2021/12/28 09:50:39;;;;;;;0.88;0.88;;;-3.20;99.90;;;;;;5073611;28;20292;-76
2021/12/28 09:53:06;;;;;;;0.80;0.80;;;-3.20;99.90;;;;;;5072607;28;20696;-75
2021/12/28 09:55:33;;;;;;;1.17;1.17;;;-3.20;99.90;;;;;;5073605;28;20576;-75
2021/12/28 09:57:59;;;;;;;0.90;0.90;;;-3.20;99.90;;;;;;5058153;28;20668;-75
2021/12/28 10:00:26;;;;;;;1.00;1.00;;;-3.10;99.90;;;;;;5062732;28;20208;-76
2021/12/28 10:02:53;;;;;;;1.58;1.48;;;-3.10;99.90;;;;;;5064863;28;20716;-74
2021/12/28 10:05:23;;;;;;;0.90;0.90;;;-3.20;99.90;;;;;;5060237;28;20582;-75
2021/12/28 10:07:56;;;;;;;1.88;1.55;;;-3.10;99.90;;;;;;5072269;28;20211;-74
2021/12/28 10:10:28;;;;;;;0.90;0.90;;;-3.00;99.90;;;;;;5061562;28;20209;-75
2021/12/28 10:12:59;;;;;;;0.90;0.90;;;-3.00;99.90;;;;;;5072173;28;20280;-75
2021/12/28 10:15:29;;;;;;;0.90;0.90;;;-3.00;99.90;;;;;;5071568;28;20404;-76
2021/12/28 10:18:00;;;;;;;1.00;1.00;;;-3.00;99.90;;;;;;5072181;28;20215;-75
2021/12/28 10:20:52;;;;;;;0.90;0.90;;;-3.00;99.90;;;;;;5072150;28;20208;-75
2021/12/28 10:23:25;;;;;;;0.90;0.90;;;-3.00;99.90;;;;;;5063702;28;20217;-76
2021/12/28 10:25:55;;;;;;;0.88;0.88;;;-3.00;99.90;;;;;;5073459;28;20718;-75
2021/12/28 10:28:31;;;;;;;0.80;0.80;;;-2.90;99.90;;;;;;5072853;28;20201;-75
2021/12/28 10:31:03;;;;;;;0.80;0.80;;;-2.90;99.90;;;;;;5066016;28;20239;-75
2021/12/28 10:33:31;;;;;;;0.80;0.80;;;-2.90;99.90;;;;;;5071613;28;20204;-75
2021/12/28 10:36:04;;;;;;;2.30;1.90;;;-2.80;99.90;;;;;;5063934;28;20440;-75
2021/12/28 10:38:35;;;;;;;1.05;1.02;;;-2.80;99.90;;;;;;5036863;28;20480;-76
2021/12/28 10:41:09;;;;;;;0.85;0.85;;;-2.70;99.90;;;;;;5030388;28;20244;-76
2021/12/28 10:43:38;;;;;;;0.88;0.88;;;-2.70;99.90;;;;;;5030811;28;20438;-75
2021/12/28 10:46:05;;;;;;;4.00;1.60;;;-2.70;99.90;;;;;;5031054;28;20498;-76
2021/12/28 10:48:40;;;;;;;1.05;1.05;;;-2.70;99.90;;;;;;5030045;28;20411;-76
2021/12/28 10:51:13;;;;;;;1.05;0.80;;;-2.70;99.90;;;;;;5031542;28;20681;-75
2021/12/28 10:56:32;;;;;;;1.13;1.13;;;-2.60;99.90;;;;;;5020664;28;20211;-76
2021/12/28 10:58:58;;;;;;;1.38;1.27;;;-2.60;99.90;;;;;;5028367;28;20206;-76
2021/12/28 11:01:32;;;;;;;0.77;0.77;;;-2.60;99.90;;;;;;5029749;28;20210;-74
2021/12/28 11:04:05;;;;;;;0.77;0.77;;;-2.60;99.90;;;;;;5032609;28;20247;-77
2021/12/28 11:06:33;;;;;;;0.80;0.80;;;-2.50;99.90;;;;;;5031419;28;20608;-77
2021/12/28 11:09:11;;;;;;;0.85;0.85;;;-2.50;99.90;;;;;;5020984;28;20207;-76
2021/12/28 11:11:40;;;;;;;1.40;1.30;;;-2.40;99.90;;;;;;5028650;28;20411;-77
2021/12/28 11:14:18;;;;;;;0.80;0.80;;;-2.40;99.90;;;;;;5032203;28;20225;-74
2021/12/28 11:16:55;;;;;;;1.27;1.17;;;-2.40;99.90;;;;;;5031157;28;20205;-75
2021/12/28 11:19:28;;;;;;;0.80;0.80;;;-2.40;99.90;;;;;;5030631;28;20575;-73
2021/12/28 11:21:57;;;;;;;0.70;0.70;;;-2.40;99.90;;;;;;5030928;28;20293;-74
2021/12/28 11:24:29;;;;;;;1.25;1.02;;;-2.40;99.90;;;;;;5030806;28;20210;-75
2021/12/28 11:26:55;;;;;;;0.93;0.93;;;-2.40;99.90;;;;;;5030478;28;20664;-76
2021/12/28 11:29:23;;;;;;;0.80;0.80;;;-2.40;99.90;;;;;;5030689;28;20212;-75
2021/12/28 11:31:57;;;;;;;1.35;1.25;;;-2.40;99.90;;;;;;5031704;28;20565;-73
2021/12/28 11:34:26;;;;;;;3.08;1.83;;;-2.40;99.90;;;;;;5030746;28;20546;-76
2021/12/28 11:36:57;;;;;;;14.13;3.55;;;-2.40;99.90;;;;;;5037496;28;20718;-74
2021/12/28 11:39:38;;;;;;;1.55;1.27;;;-2.30;99.90;;;;;;5071104;28;20580;-75
2021/12/28 11:42:06;;;;;;;0.82;0.82;;;-2.30;99.90;;;;;;5058696;28;20667;-75
2021/12/28 11:44:32;;;;;;;0.80;0.80;;;-2.30;99.90;;;;;;5071534;28;20205;-75
2021/12/28 11:47:00;;;;;;;0.93;0.93;;;-2.20;99.90;;;;;;5071632;28;20253;-75
2021/12/28 11:49:28;;;;;;;0.80;0.80;;;-2.20;99.90;;;;;;5070362;28;20240;-75
2021/12/28 11:52:00;;;;;;;1.45;1.35;;;-2.20;99.90;;;;;;5071697;28;20201;-75
2021/12/28 11:54:28;;;;;;;3.20;1.33;;;-2.20;99.90;;;;;;5071278;28;20199;-75
2021/12/28 11:57:00;;;;;;;0.88;0.88;;;-2.20;99.90;;;;;;5053453;28;20235;-75
2021/12/28 11:59:28;;;;;;;1.02;1.00;;;-2.20;99.90;;;;;;5071395;28;20205;-75
2021/12/28 12:02:03;;;;;;;0.80;0.80;;;-2.20;99.90;;;;;;5053343;28;20231;-76
2021/12/28 12:04:34;;;;;;;0.70;0.70;;;-2.20;99.90;;;;;;5070237;28;20196;-73
2021/12/28 12:07:16;;;;;;;1.00;1.00;;;-2.20;99.90;;;;;;5070467;28;20227;-75
2021/12/28 12:09:50;;;;;;;2.67;2.45;;;-2.10;99.90;;;;;;5071270;28;20220;-76
2021/12/28 12:12:28;;;;;;;0.70;0.70;;;-2.10;99.90;;;;;;5071344;28;20683;-75
2021/12/28 12:14:57;;;;;;;0.70;0.70;;;-2.10;99.90;;;;;;5071281;28;20655;-77
2021/12/28 12:17:26;;;;;;;8.95;2.45;;;-2.20;99.90;;;;;;5054278;28;20241;-75
2021/12/28 12:19:53;;;;;;;0.85;0.85;;;-2.20;99.90;;;;;;5071335;28;20623;-76
2021/12/28 12:22:30;;;;;;;1.00;1.00;;;-2.20;99.90;;;;;;5070161;28;20208;-74
2021/12/28 12:24:56;;;;;;;0.98;0.98;;;-2.20;99.90;;;;;;5074981;28;20246;-76
2021/12/28 12:28:00;;;;;;;1.95;1.75;;;-2.20;99.90;;;;;;5073989;28;20287;-74
2021/12/28 12:30:29;;;;;;;0.80;0.80;;;-2.20;99.90;;;;;;5074251;28;20219;-74
2021/12/28 12:33:08;;;;;;;0.70;0.70;;;-2.20;99.90;;;;;;5057381;28;20201;-75
2021/12/28 12:35:46;;;;;;;1.00;1.00;;;-2.20;99.90;;;;;;5071457;28;20197;-74
2021/12/28 12:38:14;;;;;;;1.48;1.38;;;-2.20;99.90;;;;;;5075088;28;20228;-76
2021/12/28 12:40:53;;;;;;;1.63;1.20;;;-2.10;99.90;;;;;;5060603;28;20209;-76
2021/12/28 12:43:19;;;;;;;0.90;0.90;;;-2.10;99.90;;;;;;5074988;28;20200;-75
2021/12/28 12:45:51;;;;;;;0.93;0.93;;;-2.10;99.90;;;;;;5075097;28;20286;-77
2021/12/28 12:48:33;;;;;;;1.00;1.00;;;-2.10;99.90;;;;;;5073157;28;20236;-77
2021/12/28 12:51:23;;;;;;;0.93;0.93;;;-2.10;99.90;;;;;;5071844;28;20345;-76
2021/12/28 12:53:53;;;;;;;1.13;1.13;;;-2.10;99.90;;;;;;5073703;28;20656;-76
2021/12/28 12:56:22;;;;;;;0.70;0.70;;;-2.10;99.90;;;;;;5074734;28;20193;-74